TBPBTFFR

Guest
Details From TBPB - Barbados/Grantley Adams Intl
To TFFR - Pointe a Pitre Le Raizet
Flight Number -
Tags generated
Created
Modified
Stats Distance 226 nm / 419 km
Max Altitude 28,600 ft / 8,717 m
Waypoints 4
Social Downloads 2
Likes 0
Share VATSIM

Download

Looking for another format? Having issues loading an existing format? Contact us
Advertisement - Login to hide

Notes

Basic altitude profile: - Ascent Rate: 2500ft/min - Ascent Speed: 250kts - Cruise Altitude: 35000ft - Cruise Speed: 420kts - Descent Rate: 1500ft/min - Descent Speed: 250kts Options: - Use NATs: yes - Use PACOTS: yes - Use low airways: yes - Use high airways: no

Route

TBPB BIRNO A632 TASAR TFFR

ID Type Via Altitude Latitude Longitude Leg Dist Tot Dist Heading (true) Name
O TBPB APT - 0 ft / 0 m 13.07461˚ -59.49221˚ - 0 nm - Barbados/Grantley Adams Intl
BIRNO FIX - 28,600 ft / 8,717 m 14.36519˚ -60.21067˚ 88 nm 88 nm 332° / 332° -
TASAR FIX A632 (AWY-LO) 10,400 ft / 3,170 m 15.66778˚ -60.95444˚ 89 nm 177 nm 331° / 331° -
O TFFR APT - 0 ft / 0 m 16.26531˚ -61.53181˚ 48 nm 226 nm 317° / 317° Pointe a Pitre Le Raizet

Altitude Profile

Advertisement - Login to hide

Weather


0- 5 10 15 20 25 30 35+ Temperature / ° C

Clouds and Precipitation
Forecast for 2018-05-25 06:00 UTC. Updated 8 minutes ago

Ground ~20,000 ft ~40,000 ft Winds

TBPB

Details ICAO TBPB (BGI)
Name Barbados/Grantley Adams Intl
Region Barbados
Timezone America/Barbados (UTC-4.0)
Stats Elevation 168 ft / 51 m (AMSL)
Location 13.074614° -59.492206°
Runways 1
Magnetic Variation 15.625° W

METAR

TBPB 250500Z 09015KT 9999 SCT020 25/22 Q1015 NOSIG

Decode

TAF

Not found

Departure Runways

ID Width Length Bearing (true) Bearing (mag) Surface Threshold Offset Overrun Length
09 148 ft / 45 m 11,924 ft / 3,635 m 75.84° 91.46° Asphalt 0 ft / 0 m 174 ft / 53 m
27 148 ft / 45 m 11,924 ft / 3,635 m 255.85° 271.47° Asphalt 0 ft / 0 m 0 ft / 0 m

TFFR

Details ICAO TFFR (PTP)
Name Pointe a Pitre Le Raizet
Region France (Guadeloupe, Martinique, Saint Barthélemy, Saint Martin)
Timezone America/Guadeloupe (UTC-4.0)
Stats Elevation 35 ft / 11 m (AMSL)
Location 16.265306° -61.531808°
Runways 1
Magnetic Variation 14.868° W

METAR

TFFR 250500Z AUTO 09004KT CAVOK 24/22 Q1016 TEMPO 4000 SHRA BKN020TCU

Decode

TAF

TAF TFFR 242200Z 2500/2524 VRB03KT 9999 SCT025 SCT045 TEMPO 2500/2518 4000 SHRA BKN020TCU BECMG 2512/2514 09010KT

Decode

Destination Runways

ID Width Length Bearing (true) Bearing (mag) Surface Threshold Offset Overrun Length
11 148 ft / 45 m 11,513 ft / 3,509 m 100.94° 115.81° Asphalt 0 ft / 0 m 0 ft / 0 m
29 148 ft / 45 m 11,513 ft / 3,509 m 280.95° 295.82° Asphalt 0 ft / 0 m 0 ft / 0 m

Approach Navaids

Runway Type Ident Frequency Range Bearing (true) Bearing (mag) Slope Elevation
11 Localiser PP 110.30 MHz 18 nm / 33 km 100.95° 115.82° - 36 ft / 11 m (AMSL)
11 Glidescope PP 110.30 MHz 10 nm / 19 km 100.94° 115.81° 3.20° 36 ft / 11 m (AMSL)

Popular Alternatives